sensor_id;sensor_type;location;lat;lon;timestamp;P1;durP1;ratioP1;P2;durP2;ratioP2
9473;SDS011;8865;47.636;7.692;2022-07-23T00:01:19;9.67;;;8.67;;
9473;SDS011;8865;47.636;7.692;2022-07-23T00:03:46;10.40;;;8.80;;
9473;SDS011;8865;47.636;7.692;2022-07-23T00:06:12;8.90;;;8.20;;
9473;SDS011;8865;47.636;7.692;2022-07-23T00:08:38;9.20;;;8.30;;
9473;SDS011;8865;47.636;7.692;2022-07-23T00:11:04;8.90;;;8.00;;
9473;SDS011;8865;47.636;7.692;2022-07-23T00:13:30;8.53;;;7.73;;
9473;SDS011;8865;47.636;7.692;2022-07-23T00:15:56;9.60;;;7.70;;
9473;SDS011;8865;47.636;7.692;2022-07-23T00:18:22;8.57;;;7.77;;
9473;SDS011;8865;47.636;7.692;2022-07-23T00:20:48;8.57;;;7.63;;
9473;SDS011;8865;47.636;7.692;2022-07-23T00:23:15;9.00;;;8.10;;
9473;SDS011;8865;47.636;7.692;2022-07-23T00:25:41;7.97;;;7.27;;
9473;SDS011;8865;47.636;7.692;2022-07-23T00:28:07;8.80;;;8.00;;
9473;SDS011;8865;47.636;7.692;2022-07-23T00:30:33;8.57;;;7.77;;
9473;SDS011;8865;47.636;7.692;2022-07-23T00:33:00;8.27;;;7.67;;
9473;SDS011;8865;47.636;7.692;2022-07-23T00:35:29;8.67;;;7.87;;
9473;SDS011;8865;47.636;7.692;2022-07-23T00:37:58;8.97;;;8.17;;
9473;SDS011;8865;47.636;7.692;2022-07-23T00:40:25;8.77;;;7.97;;
9473;SDS011;8865;47.636;7.692;2022-07-23T00:42:52;9.23;;;7.57;;
9473;SDS011;8865;47.636;7.692;2022-07-23T00:45:18;8.70;;;8.00;;
9473;SDS011;8865;47.636;7.692;2022-07-23T00:47:44;12.37;;;8.50;;
9473;SDS011;8865;47.636;7.692;2022-07-23T00:50:11;8.50;;;7.63;;
9473;SDS011;8865;47.636;7.692;2022-07-23T00:52:37;8.83;;;7.97;;
9473;SDS011;8865;47.636;7.692;2022-07-23T00:55:04;8.80;;;8.00;;
9473;SDS011;8865;47.636;7.692;2022-07-23T00:57:32;10.37;;;8.07;;
9473;SDS011;8865;47.636;7.692;2022-07-23T00:59:58;8.97;;;8.07;;
9473;SDS011;8865;47.636;7.692;2022-07-23T01:02:25;10.33;;;7.93;;
9473;SDS011;8865;47.636;7.692;2022-07-23T01:04:52;8.90;;;8.00;;
9473;SDS011;8865;47.636;7.692;2022-07-23T01:07:19;9.30;;;8.17;;
9473;SDS011;8865;47.636;7.692;2022-07-23T01:09:45;8.73;;;7.80;;
9473;SDS011;8865;47.636;7.692;2022-07-23T01:12:11;8.87;;;8.07;;
9473;SDS011;8865;47.636;7.692;2022-07-23T01:14:38;8.77;;;8.00;;
9473;SDS011;8865;47.636;7.692;2022-07-23T01:17:04;9.07;;;8.17;;
9473;SDS011;8865;47.636;7.692;2022-07-23T01:19:30;8.53;;;7.67;;
9473;SDS011;8865;47.636;7.692;2022-07-23T01:21:56;9.23;;;8.00;;
9473;SDS011;8865;47.636;7.692;2022-07-23T01:24:23;10.53;;;8.10;;
9473;SDS011;8865;47.636;7.692;2022-07-23T01:26:50;8.73;;;7.93;;
9473;SDS011;8865;47.636;7.692;2022-07-23T01:29:16;9.27;;;8.47;;
9473;SDS011;8865;47.636;7.692;2022-07-23T01:31:43;9.13;;;8.33;;
9473;SDS011;8865;47.636;7.692;2022-07-23T01:34:09;9.03;;;8.33;;
9473;SDS011;8865;47.636;7.692;2022-07-23T01:36:36;8.90;;;8.00;;
9473;SDS011;8865;47.636;7.692;2022-07-23T01:39:03;8.87;;;8.07;;
9473;SDS011;8865;47.636;7.692;2022-07-23T01:41:30;9.20;;;8.30;;
9473;SDS011;8865;47.636;7.692;2022-07-23T01:43:56;9.50;;;8.43;;
9473;SDS011;8865;47.636;7.692;2022-07-23T01:46:22;9.37;;;8.37;;
9473;SDS011;8865;47.636;7.692;2022-07-23T01:48:48;9.57;;;8.40;;
9473;SDS011;8865;47.636;7.692;2022-07-23T01:51:14;8.97;;;7.87;;
9473;SDS011;8865;47.636;7.692;2022-07-23T01:53:40;9.23;;;8.27;;
9473;SDS011;8865;47.636;7.692;2022-07-23T01:56:07;9.07;;;8.20;;
9473;SDS011;8865;47.636;7.692;2022-07-23T01:58:33;9.20;;;8.20;;
9473;SDS011;8865;47.636;7.692;2022-07-23T02:00:59;8.87;;;7.97;;
9473;SDS011;8865;47.636;7.692;2022-07-23T02:03:25;9.43;;;8.53;;
9473;SDS011;8865;47.636;7.692;2022-07-23T02:05:52;8.93;;;8.13;;
9473;SDS011;8865;47.636;7.692;2022-07-23T02:08:18;9.70;;;8.70;;
9473;SDS011;8865;47.636;7.692;2022-07-23T02:10:44;9.60;;;8.80;;
9473;SDS011;8865;47.636;7.692;2022-07-23T02:13:11;8.87;;;7.97;;
9473;SDS011;8865;47.636;7.692;2022-07-23T02:15:37;8.97;;;8.17;;
9473;SDS011;8865;47.636;7.692;2022-07-23T02:18:06;8.70;;;7.97;;
9473;SDS011;8865;47.636;7.692;2022-07-23T02:20:33;8.63;;;7.73;;
9473;SDS011;8865;47.636;7.692;2022-07-23T02:22:59;8.50;;;7.67;;
9473;SDS011;8865;47.636;7.692;2022-07-23T02:25:25;9.30;;;8.50;;
9473;SDS011;8865;47.636;7.692;2022-07-23T02:27:51;9.20;;;8.27;;
9473;SDS011;8865;47.636;7.692;2022-07-23T02:30:17;8.57;;;7.87;;
9473;SDS011;8865;47.636;7.692;2022-07-23T02:32:43;8.87;;;8.13;;
9473;SDS011;8865;47.636;7.692;2022-07-23T02:35:09;8.83;;;7.97;;
9473;SDS011;8865;47.636;7.692;2022-07-23T02:37:35;8.67;;;7.93;;
9473;SDS011;8865;47.636;7.692;2022-07-23T02:40:01;8.77;;;7.97;;
9473;SDS011;8865;47.636;7.692;2022-07-23T02:42:27;8.83;;;8.03;;
9473;SDS011;8865;47.636;7.692;2022-07-23T02:44:53;8.13;;;7.43;;
9473;SDS011;8865;47.636;7.692;2022-07-23T02:47:19;8.90;;;8.10;;
9473;SDS011;8865;47.636;7.692;2022-07-23T02:49:45;9.43;;;8.40;;
9473;SDS011;8865;47.636;7.692;2022-07-23T02:52:11;8.93;;;8.10;;
9473;SDS011;8865;47.636;7.692;2022-07-23T02:54:37;8.80;;;7.90;;
9473;SDS011;8865;47.636;7.692;2022-07-23T02:57:04;29.10;;;14.47;;
9473;SDS011;8865;47.636;7.692;2022-07-23T02:59:30;15.40;;;10.67;;
9473;SDS011;8865;47.636;7.692;2022-07-23T03:01:56;15.67;;;9.93;;
9473;SDS011;8865;47.636;7.692;2022-07-23T03:04:23;12.17;;;10.53;;
9473;SDS011;8865;47.636;7.692;2022-07-23T03:06:49;13.53;;;9.53;;
9473;SDS011;8865;47.636;7.692;2022-07-23T03:09:15;12.17;;;10.97;;
9473;SDS011;8865;47.636;7.692;2022-07-23T03:11:41;11.53;;;10.43;;
9473;SDS011;8865;47.636;7.692;2022-07-23T03:14:07;12.67;;;10.47;;
9473;SDS011;8865;47.636;7.692;2022-07-23T03:16:33;12.10;;;10.83;;
9473;SDS011;8865;47.636;7.692;2022-07-23T03:18:59;14.03;;;11.50;;
9473;SDS011;8865;47.636;7.692;2022-07-23T03:21:25;12.83;;;11.50;;
9473;SDS011;8865;47.636;7.692;2022-07-23T03:23:51;12.47;;;11.17;;
9473;SDS011;8865;47.636;7.692;2022-07-23T03:26:17;12.87;;;11.50;;
9473;SDS011;8865;47.636;7.692;2022-07-23T03:28:43;12.87;;;11.77;;
9473;SDS011;8865;47.636;7.692;2022-07-23T03:31:09;14.07;;;12.67;;
9473;SDS011;8865;47.636;7.692;2022-07-23T03:33:35;13.10;;;11.73;;
9473;SDS011;8865;47.636;7.692;2022-07-23T03:36:01;16.00;;;11.50;;
9473;SDS011;8865;47.636;7.692;2022-07-23T03:38:27;15.57;;;11.47;;
9473;SDS011;8865;47.636;7.692;2022-07-23T03:40:53;13.10;;;10.43;;
9473;SDS011;8865;47.636;7.692;2022-07-23T03:43:20;12.70;;;9.73;;
9473;SDS011;8865;47.636;7.692;2022-07-23T03:45:46;9.77;;;8.80;;
9473;SDS011;8865;47.636;7.692;2022-07-23T03:48:12;10.70;;;9.70;;
9473;SDS011;8865;47.636;7.692;2022-07-23T03:50:38;10.93;;;9.93;;
9473;SDS011;8865;47.636;7.692;2022-07-23T03:53:04;12.97;;;10.67;;
9473;SDS011;8865;47.636;7.692;2022-07-23T03:55:30;11.63;;;10.60;;
9473;SDS011;8865;47.636;7.692;2022-07-23T03:57:56;12.97;;;11.67;;
9473;SDS011;8865;47.636;7.692;2022-07-23T04:00:22;12.33;;;11.20;;
9473;SDS011;8865;47.636;7.692;2022-07-23T04:02:48;11.93;;;10.67;;
9473;SDS011;8865;47.636;7.692;2022-07-23T04:05:14;12.60;;;11.30;;
9473;SDS011;8865;47.636;7.692;2022-07-23T04:07:40;12.30;;;11.10;;
9473;SDS011;8865;47.636;7.692;2022-07-23T04:10:06;12.10;;;11.00;;
9473;SDS011;8865;47.636;7.692;2022-07-23T04:12:32;11.87;;;10.57;;
9473;SDS011;8865;47.636;7.692;2022-07-23T04:14:58;14.30;;;10.67;;
9473;SDS011;8865;47.636;7.692;2022-07-23T04:17:24;12.03;;;10.93;;
9473;SDS011;8865;47.636;7.692;2022-07-23T04:19:51;12.47;;;11.37;;
9473;SDS011;8865;47.636;7.692;2022-07-23T04:22:16;12.17;;;11.07;;
9473;SDS011;8865;47.636;7.692;2022-07-23T04:24:42;12.10;;;10.90;;
9473;SDS011;8865;47.636;7.692;2022-07-23T04:27:08;11.50;;;10.40;;
9473;SDS011;8865;47.636;7.692;2022-07-23T04:29:34;12.00;;;10.77;;
9473;SDS011;8865;47.636;7.692;2022-07-23T04:32:00;11.87;;;10.27;;
9473;SDS011;8865;47.636;7.692;2022-07-23T04:34:26;12.67;;;11.43;;
9473;SDS011;8865;47.636;7.692;2022-07-23T04:36:53;12.13;;;11.00;;
9473;SDS011;8865;47.636;7.692;2022-07-23T04:39:19;12.90;;;11.60;;
9473;SDS011;8865;47.636;7.692;2022-07-23T04:41:45;12.73;;;11.63;;
9473;SDS011;8865;47.636;7.692;2022-07-23T04:44:12;13.10;;;11.23;;
9473;SDS011;8865;47.636;7.692;2022-07-23T04:46:38;11.93;;;10.83;;
9473;SDS011;8865;47.636;7.692;2022-07-23T04:49:04;12.50;;;11.40;;
9473;SDS011;8865;47.636;7.692;2022-07-23T04:51:30;11.77;;;10.63;;
9473;SDS011;8865;47.636;7.692;2022-07-23T04:53:56;12.57;;;11.20;;
9473;SDS011;8865;47.636;7.692;2022-07-23T04:56:22;12.40;;;11.20;;
9473;SDS011;8865;47.636;7.692;2022-07-23T04:58:48;12.53;;;11.33;;
9473;SDS011;8865;47.636;7.692;2022-07-23T05:01:14;12.40;;;11.10;;
9473;SDS011;8865;47.636;7.692;2022-07-23T05:03:40;11.53;;;10.63;;
9473;SDS011;8865;47.636;7.692;2022-07-23T05:06:06;12.30;;;11.17;;
9473;SDS011;8865;47.636;7.692;2022-07-23T05:08:32;11.83;;;10.73;;
9473;SDS011;8865;47.636;7.692;2022-07-23T05:10:58;11.23;;;10.30;;
9473;SDS011;8865;47.636;7.692;2022-07-23T05:13:24;11.47;;;10.47;;
9473;SDS011;8865;47.636;7.692;2022-07-23T05:15:50;11.07;;;10.03;;
9473;SDS011;8865;47.636;7.692;2022-07-23T05:20:45;10.90;;;9.90;;
9473;SDS011;8865;47.636;7.692;2022-07-23T05:23:11;11.00;;;10.00;;
9473;SDS011;8865;47.636;7.692;2022-07-23T05:25:37;11.00;;;10.00;;
9473;SDS011;8865;47.636;7.692;2022-07-23T05:28:03;10.20;;;9.30;;
9473;SDS011;8865;47.636;7.692;2022-07-23T05:30:29;10.67;;;9.60;;
9473;SDS011;8865;47.636;7.692;2022-07-23T05:32:55;10.80;;;9.73;;
9473;SDS011;8865;47.636;7.692;2022-07-23T05:35:21;9.70;;;8.90;;
9473;SDS011;8865;47.636;7.692;2022-07-23T05:37:47;10.70;;;9.77;;
9473;SDS011;8865;47.636;7.692;2022-07-23T05:40:13;10.93;;;9.93;;
9473;SDS011;8865;47.636;7.692;2022-07-23T05:42:39;10.43;;;9.50;;
9473;SDS011;8865;47.636;7.692;2022-07-23T05:45:08;10.40;;;9.40;;
9473;SDS011;8865;47.636;7.692;2022-07-23T05:50:11;10.80;;;9.63;;
9473;SDS011;8865;47.636;7.692;2022-07-23T05:52:39;10.37;;;9.57;;
9473;SDS011;8865;47.636;7.692;2022-07-23T05:55:06;11.07;;;9.90;;
9473;SDS011;8865;47.636;7.692;2022-07-23T05:57:32;10.07;;;9.17;;
9473;SDS011;8865;47.636;7.692;2022-07-23T05:59:59;10.33;;;9.33;;
9473;SDS011;8865;47.636;7.692;2022-07-23T06:02:25;10.33;;;8.70;;
9473;SDS011;8865;47.636;7.692;2022-07-23T06:04:51;9.93;;;9.03;;
9473;SDS011;8865;47.636;7.692;2022-07-23T06:07:17;9.73;;;8.93;;
9473;SDS011;8865;47.636;7.692;2022-07-23T06:09:43;9.73;;;8.93;;
9473;SDS011;8865;47.636;7.692;2022-07-23T06:12:09;9.67;;;8.70;;
9473;SDS011;8865;47.636;7.692;2022-07-23T06:14:35;10.20;;;9.30;;
9473;SDS011;8865;47.636;7.692;2022-07-23T06:17:01;9.93;;;8.80;;
9473;SDS011;8865;47.636;7.692;2022-07-23T06:19:27;9.40;;;8.60;;
9473;SDS011;8865;47.636;7.692;2022-07-23T06:21:53;10.27;;;8.63;;
9473;SDS011;8865;47.636;7.692;2022-07-23T06:24:19;8.87;;;8.00;;
9473;SDS011;8865;47.636;7.692;2022-07-23T06:26:45;9.20;;;8.30;;
9473;SDS011;8865;47.636;7.692;2022-07-23T06:29:11;8.37;;;7.50;;
9473;SDS011;8865;47.636;7.692;2022-07-23T06:31:37;8.67;;;7.70;;
9473;SDS011;8865;47.636;7.692;2022-07-23T06:34:03;9.47;;;8.17;;
9473;SDS011;8865;47.636;7.692;2022-07-23T06:36:29;8.43;;;7.73;;
9473;SDS011;8865;47.636;7.692;2022-07-23T06:38:55;9.03;;;7.90;;
9473;SDS011;8865;47.636;7.692;2022-07-23T06:41:21;8.17;;;7.57;;
9473;SDS011;8865;47.636;7.692;2022-07-23T06:43:48;9.30;;;8.40;;
9473;SDS011;8865;47.636;7.692;2022-07-23T06:46:14;8.63;;;7.87;;
9473;SDS011;8865;47.636;7.692;2022-07-23T06:48:40;9.00;;;8.10;;
9473;SDS011;8865;47.636;7.692;2022-07-23T06:51:06;9.13;;;8.27;;
9473;SDS011;8865;47.636;7.692;2022-07-23T06:53:32;9.07;;;8.27;;
9473;SDS011;8865;47.636;7.692;2022-07-23T06:55:58;9.30;;;8.50;;
9473;SDS011;8865;47.636;7.692;2022-07-23T06:58:24;8.73;;;7.90;;
9473;SDS011;8865;47.636;7.692;2022-07-23T07:00:50;8.50;;;7.70;;
9473;SDS011;8865;47.636;7.692;2022-07-23T07:03:17;8.60;;;7.70;;
9473;SDS011;8865;47.636;7.692;2022-07-23T07:05:44;9.07;;;8.20;;
9473;SDS011;8865;47.636;7.692;2022-07-23T07:08:10;9.17;;;8.43;;
9473;SDS011;8865;47.636;7.692;2022-07-23T07:10:36;11.43;;;10.33;;
9473;SDS011;8865;47.636;7.692;2022-07-23T07:13:02;8.50;;;7.70;;
9473;SDS011;8865;47.636;7.692;2022-07-23T07:15:28;8.23;;;7.43;;
9473;SDS011;8865;47.636;7.692;2022-07-23T07:17:54;8.60;;;7.90;;
9473;SDS011;8865;47.636;7.692;2022-07-23T07:20:20;8.57;;;7.77;;
9473;SDS011;8865;47.636;7.692;2022-07-23T07:22:46;8.73;;;7.93;;
9473;SDS011;8865;47.636;7.692;2022-07-23T07:25:12;8.17;;;7.47;;
9473;SDS011;8865;47.636;7.692;2022-07-23T07:27:38;8.40;;;7.60;;
9473;SDS011;8865;47.636;7.692;2022-07-23T07:30:04;8.10;;;7.40;;
9473;SDS011;8865;47.636;7.692;2022-07-23T07:32:31;7.97;;;7.27;;
9473;SDS011;8865;47.636;7.692;2022-07-23T07:34:58;8.17;;;7.47;;
9473;SDS011;8865;47.636;7.692;2022-07-23T07:37:24;9.33;;;8.40;;
9473;SDS011;8865;47.636;7.692;2022-07-23T07:39:50;8.57;;;7.87;;
9473;SDS011;8865;47.636;7.692;2022-07-23T07:42:16;8.03;;;7.30;;
9473;SDS011;8865;47.636;7.692;2022-07-23T07:44:42;8.63;;;7.93;;
9473;SDS011;8865;47.636;7.692;2022-07-23T07:47:08;8.97;;;8.07;;
9473;SDS011;8865;47.636;7.692;2022-07-23T07:49:34;18.33;;;16.67;;
9473;SDS011;8865;47.636;7.692;2022-07-23T07:52:00;9.13;;;8.33;;
9473;SDS011;8865;47.636;7.692;2022-07-23T07:54:26;8.47;;;7.77;;
9473;SDS011;8865;47.636;7.692;2022-07-23T07:56:52;8.60;;;7.87;;
9473;SDS011;8865;47.636;7.692;2022-07-23T07:59:18;8.83;;;7.93;;
9473;SDS011;8865;47.636;7.692;2022-07-23T08:01:44;8.17;;;7.50;;
9473;SDS011;8865;47.636;7.692;2022-07-23T08:04:10;8.87;;;8.00;;
9473;SDS011;8865;47.636;7.692;2022-07-23T08:06:36;8.93;;;7.67;;
9473;SDS011;8865;47.636;7.692;2022-07-23T08:09:02;8.73;;;8.00;;
9473;SDS011;8865;47.636;7.692;2022-07-23T08:11:28;9.00;;;8.20;;
9473;SDS011;8865;47.636;7.692;2022-07-23T08:13:54;8.60;;;7.83;;
9473;SDS011;8865;47.636;7.692;2022-07-23T08:16:20;8.50;;;7.80;;
9473;SDS011;8865;47.636;7.692;2022-07-23T08:18:46;8.20;;;7.50;;
9473;SDS011;8865;47.636;7.692;2022-07-23T08:21:12;7.93;;;7.33;;
9473;SDS011;8865;47.636;7.692;2022-07-23T08:23:38;9.13;;;7.67;;
9473;SDS011;8865;47.636;7.692;2022-07-23T08:26:04;8.70;;;8.00;;
9473;SDS011;8865;47.636;7.692;2022-07-23T08:28:30;7.93;;;7.30;;
9473;SDS011;8865;47.636;7.692;2022-07-23T08:30:58;8.13;;;7.43;;
9473;SDS011;8865;47.636;7.692;2022-07-23T08:33:25;8.83;;;8.03;;
9473;SDS011;8865;47.636;7.692;2022-07-23T08:35:51;8.43;;;7.73;;
9473;SDS011;8865;47.636;7.692;2022-07-23T08:38:20;7.87;;;7.27;;
9473;SDS011;8865;47.636;7.692;2022-07-23T08:40:48;8.00;;;7.20;;
9473;SDS011;8865;47.636;7.692;2022-07-23T08:43:17;8.27;;;7.63;;
9473;SDS011;8865;47.636;7.692;2022-07-23T08:45:45;8.03;;;7.23;;
9473;SDS011;8865;47.636;7.692;2022-07-23T08:48:14;8.13;;;7.43;;
9473;SDS011;8865;47.636;7.692;2022-07-23T08:50:45;8.77;;;7.97;;
9473;SDS011;8865;47.636;7.692;2022-07-23T08:53:13;7.73;;;7.00;;
9473;SDS011;8865;47.636;7.692;2022-07-23T08:55:40;8.50;;;7.73;;
9473;SDS011;8865;47.636;7.692;2022-07-23T08:58:10;8.17;;;7.47;;
9473;SDS011;8865;47.636;7.692;2022-07-23T09:00:36;8.57;;;7.77;;
9473;SDS011;8865;47.636;7.692;2022-07-23T09:03:02;8.00;;;7.30;;
9473;SDS011;8865;47.636;7.692;2022-07-23T09:05:28;8.43;;;7.63;;
9473;SDS011;8865;47.636;7.692;2022-07-23T09:10:29;7.70;;;7.10;;
9473;SDS011;8865;47.636;7.692;2022-07-23T09:12:56;8.23;;;7.53;;
9473;SDS011;8865;47.636;7.692;2022-07-23T09:15:22;9.07;;;8.17;;
9473;SDS011;8865;47.636;7.692;2022-07-23T09:17:49;8.37;;;7.57;;
9473;SDS011;8865;47.636;7.692;2022-07-23T09:20:15;8.47;;;7.67;;
9473;SDS011;8865;47.636;7.692;2022-07-23T09:22:45;8.53;;;7.83;;
9473;SDS011;8865;47.636;7.692;2022-07-23T09:25:16;9.57;;;8.67;;
9473;SDS011;8865;47.636;7.692;2022-07-23T09:27:54;8.37;;;7.67;;
9473;SDS011;8865;47.636;7.692;2022-07-23T09:30:26;8.43;;;7.70;;
9473;SDS011;8865;47.636;7.692;2022-07-23T09:33:10;8.70;;;8.00;;
9473;SDS011;8865;47.636;7.692;2022-07-23T09:35:51;8.67;;;7.43;;
9473;SDS011;8865;47.636;7.692;2022-07-23T09:38:19;8.60;;;7.87;;
9473;SDS011;8865;47.636;7.692;2022-07-23T09:41:08;8.03;;;7.33;;
9473;SDS011;8865;47.636;7.692;2022-07-23T09:43:35;8.37;;;7.57;;
9473;SDS011;8865;47.636;7.692;2022-07-23T09:46:20;7.40;;;6.80;;
9473;SDS011;8865;47.636;7.692;2022-07-23T09:48:50;8.90;;;8.10;;
9473;SDS011;8865;47.636;7.692;2022-07-23T09:51:18;8.60;;;7.70;;
9473;SDS011;8865;47.636;7.692;2022-07-23T09:54:02;8.13;;;7.43;;
9473;SDS011;8865;47.636;7.692;2022-07-23T09:56:28;8.37;;;7.67;;
9473;SDS011;8865;47.636;7.692;2022-07-23T09:58:55;8.23;;;7.50;;
9473;SDS011;8865;47.636;7.692;2022-07-23T10:01:32;8.70;;;7.88;;
9473;SDS011;8865;47.636;7.692;2022-07-23T10:03:58;8.53;;;7.83;;
9473;SDS011;8865;47.636;7.692;2022-07-23T10:06:25;8.07;;;7.37;;
9473;SDS011;8865;47.636;7.692;2022-07-23T10:08:53;8.80;;;7.97;;
9473;SDS011;8865;47.636;7.692;2022-07-23T10:11:23;7.80;;;7.20;;
9473;SDS011;8865;47.636;7.692;2022-07-23T10:13:49;9.80;;;7.55;;
9473;SDS011;8865;47.636;7.692;2022-07-23T10:16:15;9.10;;;7.97;;
9473;SDS011;8865;47.636;7.692;2022-07-23T10:18:42;8.40;;;7.60;;
9473;SDS011;8865;47.636;7.692;2022-07-23T10:21:08;8.57;;;7.77;;
9473;SDS011;8865;47.636;7.692;2022-07-23T10:23:45;8.47;;;7.57;;
9473;SDS011;8865;47.636;7.692;2022-07-23T10:26:29;7.95;;;7.15;;
9473;SDS011;8865;47.636;7.692;2022-07-23T10:29:18;9.63;;;8.73;;
9473;SDS011;8865;47.636;7.692;2022-07-23T10:31:58;8.68;;;7.97;;
9473;SDS011;8865;47.636;7.692;2022-07-23T10:34:35;7.88;;;7.18;;
9473;SDS011;8865;47.636;7.692;2022-07-23T10:37:28;7.53;;;6.88;;
9473;SDS011;8865;47.636;7.692;2022-07-23T10:40:20;7.47;;;6.85;;
9473;SDS011;8865;47.636;7.692;2022-07-23T10:42:49;7.80;;;7.10;;
9473;SDS011;8865;47.636;7.692;2022-07-23T10:48:16;7.30;;;6.70;;
9473;SDS011;8865;47.636;7.692;2022-07-23T10:50:44;8.23;;;7.53;;
9473;SDS011;8865;47.636;7.692;2022-07-23T10:53:52;9.52;;;7.38;;
9473;SDS011;8865;47.636;7.692;2022-07-23T10:56:17;8.02;;;7.32;;
9473;SDS011;8865;47.636;7.692;2022-07-23T10:59:04;7.40;;;6.70;;
9473;SDS011;8865;47.636;7.692;2022-07-23T11:01:30;7.60;;;7.00;;
9473;SDS011;8865;47.636;7.692;2022-07-23T11:04:05;8.00;;;7.40;;
9473;SDS011;8865;47.636;7.692;2022-07-23T11:09:27;8.05;;;7.35;;
9473;SDS011;8865;47.636;7.692;2022-07-23T11:17:36;7.60;;;7.00;;
9473;SDS011;8865;47.636;7.692;2022-07-23T11:20:15;7.72;;;7.10;;
9473;SDS011;8865;47.636;7.692;2022-07-23T11:25:51;8.30;;;7.15;;
9473;SDS011;8865;47.636;7.692;2022-07-23T11:28:15;7.60;;;7.00;;
9473;SDS011;8865;47.636;7.692;2022-07-23T11:30:44;7.03;;;6.20;;
9473;SDS011;8865;47.636;7.692;2022-07-23T11:35:37;7.82;;;6.80;;
9473;SDS011;8865;47.636;7.692;2022-07-23T11:38:06;6.57;;;5.97;;
9473;SDS011;8865;47.636;7.692;2022-07-23T11:40:53;7.70;;;6.57;;
9473;SDS011;8865;47.636;7.692;2022-07-23T11:43:22;6.75;;;6.07;;
9473;SDS011;8865;47.636;7.692;2022-07-23T11:45:49;7.10;;;6.40;;
9473;SDS011;8865;47.636;7.692;2022-07-23T11:48:23;6.50;;;6.00;;
9473;SDS011;8865;47.636;7.692;2022-07-23T11:50:51;7.25;;;6.65;;
9473;SDS011;8865;47.636;7.692;2022-07-23T11:53:25;7.25;;;6.60;;
9473;SDS011;8865;47.636;7.692;2022-07-23T11:55:53;7.32;;;6.63;;
9473;SDS011;8865;47.636;7.692;2022-07-23T11:58:20;6.78;;;6.13;;
9473;SDS011;8865;47.636;7.692;2022-07-23T12:00:46;6.72;;;6.22;;
9473;SDS011;8865;47.636;7.692;2022-07-23T12:03:13;6.80;;;6.30;;
9473;SDS011;8865;47.636;7.692;2022-07-23T12:05:39;6.75;;;6.15;;
9473;SDS011;8865;47.636;7.692;2022-07-23T12:08:07;6.30;;;5.90;;
9473;SDS011;8865;47.636;7.692;2022-07-23T12:10:42;7.10;;;5.93;;
9473;SDS011;8865;47.636;7.692;2022-07-23T12:13:10;6.70;;;6.20;;
9473;SDS011;8865;47.636;7.692;2022-07-23T12:15:45;7.10;;;5.68;;
9473;SDS011;8865;47.636;7.692;2022-07-23T12:18:17;7.05;;;6.32;;
9473;SDS011;8865;47.636;7.692;2022-07-23T12:20:46;7.10;;;5.75;;
9473;SDS011;8865;47.636;7.692;2022-07-23T12:23:15;5.82;;;5.43;;
9473;SDS011;8865;47.636;7.692;2022-07-23T12:25:44;6.18;;;5.57;;
9473;SDS011;8865;47.636;7.692;2022-07-23T12:33:08;6.32;;;5.82;;
9473;SDS011;8865;47.636;7.692;2022-07-23T12:35:42;5.90;;;5.40;;
9473;SDS011;8865;47.636;7.692;2022-07-23T12:38:11;6.05;;;5.45;;
9473;SDS011;8865;47.636;7.692;2022-07-23T12:40:57;5.55;;;5.05;;
9473;SDS011;8865;47.636;7.692;2022-07-23T12:43:27;5.63;;;5.13;;
9473;SDS011;8865;47.636;7.692;2022-07-23T12:46:35;5.97;;;5.47;;
9473;SDS011;8865;47.636;7.692;2022-07-23T12:48:59;5.75;;;5.20;;
9473;SDS011;8865;47.636;7.692;2022-07-23T12:51:26;6.20;;;5.60;;
9473;SDS011;8865;47.636;7.692;2022-07-23T12:53:58;5.55;;;5.15;;
9473;SDS011;8865;47.636;7.692;2022-07-23T12:56:33;5.47;;;4.97;;
9473;SDS011;8865;47.636;7.692;2022-07-23T13:06:35;5.70;;;5.20;;
9473;SDS011;8865;47.636;7.692;2022-07-23T13:09:07;5.40;;;4.97;;
9473;SDS011;8865;47.636;7.692;2022-07-23T13:11:34;6.63;;;5.20;;
9473;SDS011;8865;47.636;7.692;2022-07-23T13:14:01;5.38;;;4.90;;
9473;SDS011;8865;47.636;7.692;2022-07-23T13:16:28;5.18;;;4.78;;
9473;SDS011;8865;47.636;7.692;2022-07-23T13:18:55;5.45;;;4.95;;
9473;SDS011;8865;47.636;7.692;2022-07-23T13:21:24;5.22;;;4.82;;
9473;SDS011;8865;47.636;7.692;2022-07-23T13:23:51;5.88;;;5.35;;
9473;SDS011;8865;47.636;7.692;2022-07-23T13:26:17;5.68;;;5.28;;
9473;SDS011;8865;47.636;7.692;2022-07-23T13:28:44;6.47;;;5.97;;
9473;SDS011;8865;47.636;7.692;2022-07-23T13:31:10;5.68;;;5.20;;
9473;SDS011;8865;47.636;7.692;2022-07-23T13:33:36;5.32;;;4.93;;
9473;SDS011;8865;47.636;7.692;2022-07-23T13:36:02;5.40;;;4.90;;
9473;SDS011;8865;47.636;7.692;2022-07-23T13:38:29;5.75;;;4.82;;
9473;SDS011;8865;47.636;7.692;2022-07-23T13:40:55;6.10;;;5.50;;
9473;SDS011;8865;47.636;7.692;2022-07-23T13:43:22;5.88;;;5.15;;
9473;SDS011;8865;47.636;7.692;2022-07-23T13:45:50;5.10;;;4.70;;
9473;SDS011;8865;47.636;7.692;2022-07-23T13:48:17;5.15;;;4.75;;
9473;SDS011;8865;47.636;7.692;2022-07-23T13:50:44;5.80;;;5.30;;
9473;SDS011;8865;47.636;7.692;2022-07-23T13:53:12;5.13;;;4.63;;
9473;SDS011;8865;47.636;7.692;2022-07-23T13:55:40;5.25;;;4.85;;
9473;SDS011;8865;47.636;7.692;2022-07-23T13:58:07;5.38;;;4.82;;
9473;SDS011;8865;47.636;7.692;2022-07-23T14:00:35;6.38;;;5.13;;
9473;SDS011;8865;47.636;7.692;2022-07-23T14:03:03;5.22;;;4.72;;
9473;SDS011;8865;47.636;7.692;2022-07-23T14:05:29;5.40;;;4.90;;
9473;SDS011;8865;47.636;7.692;2022-07-23T14:07:56;5.30;;;4.90;;
9473;SDS011;8865;47.636;7.692;2022-07-23T14:10:22;6.22;;;4.70;;
9473;SDS011;8865;47.636;7.692;2022-07-23T14:12:49;5.28;;;4.88;;
9473;SDS011;8865;47.636;7.692;2022-07-23T14:15:16;5.32;;;4.88;;
9473;SDS011;8865;47.636;7.692;2022-07-23T14:17:43;6.30;;;5.03;;
9473;SDS011;8865;47.636;7.692;2022-07-23T14:20:10;5.75;;;5.20;;
9473;SDS011;8865;47.636;7.692;2022-07-23T14:22:37;4.93;;;4.63;;
9473;SDS011;8865;47.636;7.692;2022-07-23T14:25:04;5.43;;;4.93;;
9473;SDS011;8865;47.636;7.692;2022-07-23T14:27:31;5.30;;;4.80;;
9473;SDS011;8865;47.636;7.692;2022-07-23T14:29:57;5.10;;;4.70;;
9473;SDS011;8865;47.636;7.692;2022-07-23T14:32:23;5.40;;;4.90;;
9473;SDS011;8865;47.636;7.692;2022-07-23T14:34:50;5.10;;;4.60;;
9473;SDS011;8865;47.636;7.692;2022-07-23T14:37:16;5.75;;;4.80;;
9473;SDS011;8865;47.636;7.692;2022-07-23T14:39:43;5.97;;;5.38;;
9473;SDS011;8865;47.636;7.692;2022-07-23T14:42:09;5.65;;;5.13;;
9473;SDS011;8865;47.636;7.692;2022-07-23T14:44:36;5.10;;;4.70;;
9473;SDS011;8865;47.636;7.692;2022-07-23T14:47:03;5.38;;;4.88;;
9473;SDS011;8865;47.636;7.692;2022-07-23T14:49:32;5.40;;;4.93;;
9473;SDS011;8865;47.636;7.692;2022-07-23T14:51:59;5.00;;;4.60;;
9473;SDS011;8865;47.636;7.692;2022-07-23T14:54:25;5.57;;;5.15;;
9473;SDS011;8865;47.636;7.692;2022-07-23T14:56:53;5.50;;;5.07;;
9473;SDS011;8865;47.636;7.692;2022-07-23T14:59:20;5.45;;;4.95;;
9473;SDS011;8865;47.636;7.692;2022-07-23T15:01:46;5.88;;;5.35;;
9473;SDS011;8865;47.636;7.692;2022-07-23T15:04:12;5.63;;;5.13;;
9473;SDS011;8865;47.636;7.692;2022-07-23T15:06:38;5.68;;;5.18;;
9473;SDS011;8865;47.636;7.692;2022-07-23T15:09:05;6.03;;;5.43;;
9473;SDS011;8865;47.636;7.692;2022-07-23T15:11:31;6.18;;;5.57;;
9473;SDS011;8865;47.636;7.692;2022-07-23T15:14:00;5.60;;;5.10;;
9473;SDS011;8865;47.636;7.692;2022-07-23T15:16:27;6.07;;;5.57;;
9473;SDS011;8865;47.636;7.692;2022-07-23T15:18:53;6.35;;;5.78;;
9473;SDS011;8865;47.636;7.692;2022-07-23T15:21:20;5.60;;;5.20;;
9473;SDS011;8865;47.636;7.692;2022-07-23T15:23:46;6.03;;;5.43;;
9473;SDS011;8865;47.636;7.692;2022-07-23T15:26:12;5.78;;;5.28;;
9473;SDS011;8865;47.636;7.692;2022-07-23T15:28:40;5.80;;;5.28;;
9473;SDS011;8865;47.636;7.692;2022-07-23T15:31:07;6.05;;;5.40;;
9473;SDS011;8865;47.636;7.692;2022-07-23T15:33:33;5.55;;;5.05;;
9473;SDS011;8865;47.636;7.692;2022-07-23T15:36:00;5.70;;;5.20;;
9473;SDS011;8865;47.636;7.692;2022-07-23T15:38:26;6.40;;;5.90;;
9473;SDS011;8865;47.636;7.692;2022-07-23T15:40:53;6.40;;;5.80;;
9473;SDS011;8865;47.636;7.692;2022-07-23T15:43:21;6.07;;;5.50;;
9473;SDS011;8865;47.636;7.692;2022-07-23T15:45:48;6.05;;;5.55;;
9473;SDS011;8865;47.636;7.692;2022-07-23T15:48:15;6.40;;;5.75;;
9473;SDS011;8865;47.636;7.692;2022-07-23T15:50:41;5.32;;;4.93;;